sensor_id;sensor_type;location;lat;lon;timestamp;pressure;altitude;pressure_sealevel;temperature;humidity
47710;BME280;33473;51.640;5.892;2023-05-02T00:06:14;101800;;;15.6;58.0
47710;BME280;33473;51.640;5.892;2023-05-02T00:19:34;101900;;;16.0;57.0
47710;BME280;33473;51.640;5.892;2023-05-02T00:32:53;101900;;;15.6;58.0
47710;BME280;33473;51.640;5.892;2023-05-02T00:46:13;101800;;;15.5;58.0
47710;BME280;33473;51.640;5.892;2023-05-02T00:59:33;101900;;;15.8;57.0
47710;BME280;33473;51.640;5.892;2023-05-02T01:12:52;101900;;;15.2;57.0
47710;BME280;33473;51.640;5.892;2023-05-02T01:26:12;101900;;;15.9;56.0
47710;BME280;33473;51.640;5.892;2023-05-02T01:39:32;101900;;;16.2;55.0
47710;BME280;33473;51.640;5.892;2023-05-02T01:52:51;101900;;;15.9;55.0
47710;BME280;33473;51.640;5.892;2023-05-02T02:06:11;101900;;;16.2;54.0
47710;BME280;33473;51.640;5.892;2023-05-02T02:19:31;101900;;;16.0;55.0
47710;BME280;33473;51.640;5.892;2023-05-02T02:32:50;101900;;;16.0;55.0
47710;BME280;33473;51.640;5.892;2023-05-02T02:46:10;101900;;;15.7;56.0
47710;BME280;33473;51.640;5.892;2023-05-02T02:59:30;101900;;;15.7;58.0
47710;BME280;33473;51.640;5.892;2023-05-02T03:12:49;101900;;;16.0;57.0
47710;BME280;33473;51.640;5.892;2023-05-02T03:26:09;102000;;;16.0;58.0
47710;BME280;33473;51.640;5.892;2023-05-02T03:39:29;102000;;;15.5;58.0
47710;BME280;33473;51.640;5.892;2023-05-02T03:52:48;102000;;;15.5;57.0
47710;BME280;33473;51.640;5.892;2023-05-02T04:06:08;102000;;;15.2;57.0
47710;BME280;33473;51.640;5.892;2023-05-02T04:19:28;102000;;;15.4;55.0
47710;BME280;33473;51.640;5.892;2023-05-02T04:32:47;102000;;;15.3;54.0
47710;BME280;33473;51.640;5.892;2023-05-02T04:46:07;102100;;;15.3;52.0
47710;BME280;33473;51.640;5.892;2023-05-02T04:59:27;102100;;;15.2;51.0
47710;BME280;33473;51.640;5.892;2023-05-02T05:12:47;102100;;;15.3;52.0
47710;BME280;33473;51.640;5.892;2023-05-02T05:26:06;102100;;;15.5;51.0
47710;BME280;33473;51.640;5.892;2023-05-02T05:39:26;102100;;;15.5;50.0
47710;BME280;33473;51.640;5.892;2023-05-02T05:52:46;102200;;;15.8;51.0
47710;BME280;33473;51.640;5.892;2023-05-02T06:06:05;102200;;;15.7;50.0
47710;BME280;33473;51.640;5.892;2023-05-02T06:19:25;102200;;;15.6;50.0
47710;BME280;33473;51.640;5.892;2023-05-02T06:32:45;102200;;;15.6;48.0
47710;BME280;33473;51.640;5.892;2023-05-02T06:46:04;102200;;;15.4;47.0
47710;BME280;33473;51.640;5.892;2023-05-02T06:59:24;102300;;;15.5;46.0
47710;BME280;33473;51.640;5.892;2023-05-02T07:12:44;102300;;;15.8;45.0
47710;BME280;33473;51.640;5.892;2023-05-02T07:26:03;102300;;;15.9;44.0
47710;BME280;33473;51.640;5.892;2023-05-02T07:39:23;102300;;;16.3;44.0
47710;BME280;33473;51.640;5.892;2023-05-02T07:52:43;102300;;;16.6;42.0
47710;BME280;33473;51.640;5.892;2023-05-02T08:06:02;102300;;;16.7;43.0
47710;BME280;33473;51.640;5.892;2023-05-02T08:19:22;102400;;;17.1;41.0
47710;BME280;33473;51.640;5.892;2023-05-02T08:32:42;102400;;;16.6;39.0
47710;BME280;33473;51.640;5.892;2023-05-02T08:46:01;102400;;;17.2;39.0
47710;BME280;33473;51.640;5.892;2023-05-02T08:59:21;102400;;;16.9;37.0
47710;BME280;33473;51.640;5.892;2023-05-02T09:12:41;102400;;;16.8;35.0
47710;BME280;33473;51.640;5.892;2023-05-02T09:26:01;102400;;;17.8;39.0
47710;BME280;33473;51.640;5.892;2023-05-02T09:39:20;102500;;;16.2;40.0
47710;BME280;33473;51.640;5.892;2023-05-02T09:52:40;102500;;;17.5;39.0
47710;BME280;33473;51.640;5.892;2023-05-02T10:06:00;102500;;;18.1;38.0
47710;BME280;33473;51.640;5.892;2023-05-02T10:19:19;102500;;;18.3;37.0
47710;BME280;33473;51.640;5.892;2023-05-02T10:32:39;102500;;;18.3;35.0
47710;BME280;33473;51.640;5.892;2023-05-02T10:45:59;102500;;;18.5;32.0
47710;BME280;33473;51.640;5.892;2023-05-02T10:59:18;102500;;;18.4;32.0
47710;BME280;33473;51.640;5.892;2023-05-02T11:12:38;102500;;;18.8;32.0
47710;BME280;33473;51.640;5.892;2023-05-02T11:25:58;102500;;;18.3;31.0
47710;BME280;33473;51.640;5.892;2023-05-02T11:39:17;102500;;;19.4;30.0
47710;BME280;33473;51.640;5.892;2023-05-02T11:52:37;102500;;;18.4;35.0
47710;BME280;33473;51.640;5.892;2023-05-02T12:05:57;102500;;;18.9;32.0
47710;BME280;33473;51.640;5.892;2023-05-02T12:19:16;102500;;;20.3;30.0
47710;BME280;33473;51.640;5.892;2023-05-02T12:32:36;102500;;;20.0;28.0
47710;BME280;33473;51.640;5.892;2023-05-02T12:45:56;102500;;;19.2;30.0
47710;BME280;33473;51.640;5.892;2023-05-02T12:59:15;102500;;;19.1;33.0
47710;BME280;33473;51.640;5.892;2023-05-02T13:12:35;102500;;;19.3;31.0
47710;BME280;33473;51.640;5.892;2023-05-02T13:25:55;102500;;;19.6;29.0
47710;BME280;33473;51.640;5.892;2023-05-02T13:39:15;102500;;;19.8;29.0
47710;BME280;33473;51.640;5.892;2023-05-02T13:52:34;102500;;;18.6;32.0
47710;BME280;33473;51.640;5.892;2023-05-02T14:05:54;102500;;;19.5;27.0
47710;BME280;33473;51.640;5.892;2023-05-02T14:19:14;102500;;;21.1;26.0
47710;BME280;33473;51.640;5.892;2023-05-02T14:32:33;102500;;;20.6;26.0
47710;BME280;33473;51.640;5.892;2023-05-02T14:45:53;102500;;;20.3;31.0
47710;BME280;33473;51.640;5.892;2023-05-02T14:59:12;102500;;;20.6;27.0
47710;BME280;33473;51.640;5.892;2023-05-02T15:12:32;102500;;;20.0;30.0
47710;BME280;33473;51.640;5.892;2023-05-02T15:25:52;102500;;;18.9;29.0
47710;BME280;33473;51.640;5.892;2023-05-02T15:39:11;102500;;;20.4;27.0
47710;BME280;33473;51.640;5.892;2023-05-02T15:52:31;102500;;;20.4;27.0
47710;BME280;33473;51.640;5.892;2023-05-02T16:05:51;102500;;;19.3;30.0
47710;BME280;33473;51.640;5.892;2023-05-02T16:19:10;102500;;;18.9;29.0
47710;BME280;33473;51.640;5.892;2023-05-02T16:32:30;102600;;;19.8;28.0
47710;BME280;33473;51.640;5.892;2023-05-02T16:45:50;102600;;;18.9;29.0
47710;BME280;33473;51.640;5.892;2023-05-02T16:59:09;102600;;;19.7;31.0
47710;BME280;33473;51.640;5.892;2023-05-02T17:12:29;102600;;;20.6;29.0
47710;BME280;33473;51.640;5.892;2023-05-02T17:25:49;102600;;;21.4;28.0
47710;BME280;33473;51.640;5.892;2023-05-02T17:39:08;102600;;;21.3;28.0
47710;BME280;33473;51.640;5.892;2023-05-02T17:52:28;102600;;;20.7;28.0
47710;BME280;33473;51.640;5.892;2023-05-02T18:05:48;102600;;;20.0;29.0
47710;BME280;33473;51.640;5.892;2023-05-02T18:19:08;102600;;;19.1;29.0
47710;BME280;33473;51.640;5.892;2023-05-02T18:32:27;102600;;;18.4;31.0
47710;BME280;33473;51.640;5.892;2023-05-02T18:45:47;102600;;;17.5;32.0
47710;BME280;33473;51.640;5.892;2023-05-02T18:59:07;102600;;;16.6;34.0
47710;BME280;33473;51.640;5.892;2023-05-02T19:12:26;102700;;;16.0;35.0
47710;BME280;33473;51.640;5.892;2023-05-02T19:25:46;102700;;;15.6;36.0
47710;BME280;33473;51.640;5.892;2023-05-02T19:39:06;102700;;;15.1;37.0
47710;BME280;33473;51.640;5.892;2023-05-02T19:52:25;102700;;;14.7;38.0
47710;BME280;33473;51.640;5.892;2023-05-02T20:05:45;102700;;;14.3;39.0
47710;BME280;33473;51.640;5.892;2023-05-02T20:19:05;102700;;;14.2;39.0
47710;BME280;33473;51.640;5.892;2023-05-02T20:32:24;102700;;;13.8;40.0
47710;BME280;33473;51.640;5.892;2023-05-02T20:45:44;102700;;;13.4;41.0
47710;BME280;33473;51.640;5.892;2023-05-02T20:59:04;102700;;;13.2;41.0
47710;BME280;33473;51.640;5.892;2023-05-02T21:12:23;102700;;;13.0;41.0
47710;BME280;33473;51.640;5.892;2023-05-02T21:25:43;102800;;;12.7;42.0
47710;BME280;33473;51.640;5.892;2023-05-02T21:39:03;102800;;;12.5;43.0
47710;BME280;33473;51.640;5.892;2023-05-02T21:52:23;102800;;;12.4;44.0
47710;BME280;33473;51.640;5.892;2023-05-02T22:05:42;102800;;;12.2;45.0
47710;BME280;33473;51.640;5.892;2023-05-02T22:19:02;102800;;;12.1;44.0
47710;BME280;33473;51.640;5.892;2023-05-02T22:32:22;102700;;;11.9;44.0
47710;BME280;33473;51.640;5.892;2023-05-02T22:45:41;102700;;;11.7;45.0
47710;BME280;33473;51.640;5.892;2023-05-02T22:59:01;102700;;;11.5;45.0
47710;BME280;33473;51.640;5.892;2023-05-02T23:12:21;102700;;;11.4;45.0
47710;BME280;33473;51.640;5.892;2023-05-02T23:25:40;102700;;;11.3;46.0
47710;BME280;33473;51.640;5.892;2023-05-02T23:39:00;102700;;;11.2;46.0
47710;BME280;33473;51.640;5.892;2023-05-02T23:52:20;102800;;;11.1;46.0
